Time;durP1;ratioP1;P1;durP2;ratioP2;P2;SDS_P1;SDS_P2;PMS_P1;PMS_P2;Temp;Humidity;BMP_temperature;BMP_pressure;BME280_temperature;BME280_humidity;BME280_pressure;Samples;Min_cycle;Max_cycle;Signal;HPM_P1;HPM_P2
2023/04/05 00:01:11;;;;;;;1.63;0.60;;;4.70;70.10;;;;;;4962687;28;20502;-90
2023/04/05 00:03:39;;;;;;;2.80;0.70;;;4.70;70.20;;;;;;4962495;28;20053;-90
2023/04/05 00:06:07;;;;;;;1.08;0.43;;;4.70;70.30;;;;;;4946540;28;20050;-90
2023/04/05 00:08:34;;;;;;;1.85;0.68;;;4.70;70.90;;;;;;4958356;28;20495;-90
2023/04/05 00:11:05;;;;;;;1.25;0.50;;;4.70;70.30;;;;;;4978487;28;20051;-90
2023/04/05 00:13:33;;;;;;;1.73;0.60;;;4.60;70.30;;;;;;4949797;28;20054;-89
2023/04/05 00:16:00;;;;;;;1.95;0.63;;;4.60;70.30;;;;;;4977750;28;20051;-89
2023/04/05 00:18:33;;;;;;;1.33;0.50;;;4.60;70.40;;;;;;4961018;28;20133;-90
2023/04/05 00:21:03;;;;;;;1.02;0.32;;;4.60;70.50;;;;;;4970371;28;20092;-90
2023/04/05 00:23:37;;;;;;;1.70;0.70;;;4.50;70.60;;;;;;4945973;28;20046;-90
2023/04/05 00:26:07;;;;;;;1.73;0.50;;;4.50;70.70;;;;;;4961983;28;20042;-90
2023/04/05 00:28:35;;;;;;;1.42;0.35;;;4.50;70.90;;;;;;4961588;28;20046;-89
2023/04/05 00:31:16;;;;;;;1.63;0.60;;;4.50;70.90;;;;;;4962224;28;20050;-89
2023/04/05 00:33:44;;;;;;;2.42;0.50;;;4.50;70.90;;;;;;4961682;28;20042;-89
2023/04/05 00:36:19;;;;;;;2.30;0.70;;;4.40;70.90;;;;;;4956700;28;20496;-89
2023/04/05 00:38:48;;;;;;;2.95;0.70;;;4.40;70.90;;;;;;4962910;28;20053;-89
2023/04/05 00:41:18;;;;;;;1.90;0.60;;;4.40;70.80;;;;;;4961674;28;20090;-89
2023/04/05 00:43:46;;;;;;;4.28;0.70;;;4.40;70.90;;;;;;4954534;28;20042;-89
2023/04/05 00:46:15;;;;;;;1.17;0.50;;;4.40;71.00;;;;;;4961690;28;20568;-89
2023/04/05 00:48:43;;;;;;;1.65;0.63;;;4.30;71.10;;;;;;4961452;28;20042;-90
2023/04/05 00:51:10;;;;;;;3.60;0.82;;;4.30;71.20;;;;;;4961752;28;20042;-90
2023/04/05 00:53:41;;;;;;;1.60;0.50;;;4.30;71.30;;;;;;4977757;28;20052;-89
2023/04/05 00:56:12;;;;;;;1.73;0.60;;;4.20;71.30;;;;;;4976656;28;20050;-89
2023/04/05 00:58:41;;;;;;;1.00;0.75;;;4.20;71.40;;;;;;4961920;28;20062;-89
2023/04/05 01:01:15;;;;;;;1.23;0.50;;;4.20;71.40;;;;;;4961573;28;20140;-89
2023/04/05 01:03:48;;;;;;;2.83;0.57;;;4.20;72.00;;;;;;4961546;28;20842;-90
2023/04/05 01:06:42;;;;;;;1.88;0.65;;;4.20;71.50;;;;;;4967262;28;20054;-90
2023/04/05 01:09:28;;;;;;;1.40;0.50;;;4.20;71.50;;;;;;4961073;28;20047;-90
2023/04/05 01:11:57;;;;;;;1.60;0.50;;;4.10;71.50;;;;;;4961124;28;20053;-90
2023/04/05 01:14:24;;;;;;;2.35;0.57;;;4.10;71.60;;;;;;4961858;28;20038;-90
2023/04/05 01:16:57;;;;;;;1.63;0.60;;;4.10;71.70;;;;;;4960850;28;20483;-90
2023/04/05 01:19:28;;;;;;;1.63;0.43;;;4.10;71.60;;;;;;4961944;28;20046;-90
2023/04/05 01:22:25;;;;;;;1.90;0.55;;;4.00;71.60;;;;;;4975978;28;20470;-90
2023/04/05 01:25:01;;;;;;;2.17;0.68;;;4.00;71.50;;;;;;4961865;28;20034;-90
2023/04/05 01:28:14;;;;;;;1.05;0.50;;;4.00;71.70;;;;;;4961029;28;20157;-90
2023/04/05 01:31:07;;;;;;;2.20;0.57;;;3.90;71.70;;;;;;4944379;28;20058;-89
2023/04/05 01:33:48;;;;;;;1.38;0.60;;;3.90;72.10;;;;;;4961646;28;20066;-90
2023/04/05 01:36:26;;;;;;;2.05;0.70;;;3.80;72.20;;;;;;4961270;28;20042;-90
2023/04/05 01:38:56;;;;;;;1.45;0.50;;;3.80;72.40;;;;;;4976701;28;20148;-90
2023/04/05 01:41:26;;;;;;;1.27;0.45;;;3.70;72.50;;;;;;4976973;28;20056;-89
2023/04/05 01:43:58;;;;;;;2.67;0.80;;;3.70;72.60;;;;;;4961372;28;20050;-89
2023/04/05 01:46:27;;;;;;;0.95;0.40;;;3.60;72.70;;;;;;4977241;28;20054;-89
2023/04/05 01:48:56;;;;;;;2.38;0.63;;;3.60;72.70;;;;;;4961068;28;20038;-90
2023/04/05 01:51:23;;;;;;;1.35;0.60;;;3.60;72.70;;;;;;4960913;28;20054;-89
2023/04/05 01:53:50;;;;;;;1.23;0.52;;;3.60;72.80;;;;;;4961162;28;20129;-90
2023/04/05 01:56:17;;;;;;;2.80;0.85;;;3.60;73.50;;;;;;4961017;28;20050;-89
2023/04/05 01:58:45;;;;;;;1.57;0.43;;;3.50;72.90;;;;;;4945430;28;20057;-89
2023/04/05 02:01:17;;;;;;;2.03;0.60;;;3.50;73.00;;;;;;4945682;28;20050;-89
2023/04/05 02:03:45;;;;;;;1.73;0.70;;;3.50;73.00;;;;;;4960501;28;20042;-89
2023/04/05 02:06:12;;;;;;;2.30;0.55;;;3.50;73.10;;;;;;4978529;28;20050;-90
2023/04/05 02:08:39;;;;;;;2.30;0.60;;;3.50;73.20;;;;;;4971219;28;20518;-89
2023/04/05 02:11:07;;;;;;;2.22;0.80;;;3.40;73.30;;;;;;4960857;28;20388;-89
2023/04/05 02:13:34;;;;;;;1.20;0.57;;;3.40;73.40;;;;;;4960497;28;20393;-89
2023/04/05 02:16:01;;;;;;;1.55;0.60;;;3.40;73.50;;;;;;4960651;28;20392;-89
2023/04/05 02:18:31;;;;;;;0.77;0.43;;;3.30;73.60;;;;;;4960717;28;20046;-89
2023/04/05 02:21:03;;;;;;;2.65;0.60;;;3.20;73.70;;;;;;4962494;28;20066;-90
2023/04/05 02:23:33;;;;;;;2.53;0.68;;;3.30;73.80;;;;;;4964116;28;20504;-90
2023/04/05 02:26:01;;;;;;;1.88;0.82;;;3.20;73.90;;;;;;4964317;28;20050;-90
2023/04/05 02:28:34;;;;;;;1.77;0.50;;;3.20;73.80;;;;;;4948936;28;20042;-90
2023/04/05 02:31:08;;;;;;;2.70;0.50;;;3.30;73.80;;;;;;4964411;28;20518;-90
2023/04/05 02:33:36;;;;;;;2.13;0.70;;;3.30;73.70;;;;;;4965680;28;20049;-90
2023/04/05 02:36:08;;;;;;;1.67;0.70;;;3.20;73.70;;;;;;4964107;28;20058;-90
2023/04/05 02:38:35;;;;;;;1.98;0.80;;;3.30;73.80;;;;;;4963827;28;20050;-90
2023/04/05 02:41:09;;;;;;;1.63;0.65;;;3.20;73.80;;;;;;4979701;28;20558;-90
2023/04/05 02:43:38;;;;;;;1.42;0.60;;;3.20;73.90;;;;;;4979698;28;20054;-90
2023/04/05 02:46:05;;;;;;;2.85;0.88;;;3.20;73.90;;;;;;4979727;28;20054;-90
2023/04/05 02:48:37;;;;;;;1.85;0.70;;;3.20;74.00;;;;;;4964344;28;20038;-90
2023/04/05 02:51:05;;;;;;;2.60;0.57;;;3.10;73.90;;;;;;4963768;28;20110;-89
2023/04/05 02:53:32;;;;;;;2.77;0.70;;;3.20;74.00;;;;;;4963821;28;20537;-89
2023/04/05 02:56:06;;;;;;;2.50;0.57;;;3.20;74.10;;;;;;4963877;28;20057;-90
2023/04/05 02:58:42;;;;;;;2.08;0.70;;;3.10;74.00;;;;;;4979827;28;20042;-90
2023/04/05 03:01:13;;;;;;;1.83;0.80;;;3.10;74.10;;;;;;4963510;28;20074;-90
2023/04/05 03:03:41;;;;;;;1.50;0.60;;;3.10;74.20;;;;;;4979967;28;20050;-90
2023/04/05 03:06:08;;;;;;;1.80;0.60;;;3.10;74.20;;;;;;4979723;28;20105;-89
2023/04/05 03:08:48;;;;;;;1.43;0.60;;;3.10;74.30;;;;;;4973240;28;20046;-89
2023/04/05 03:11:25;;;;;;;2.20;0.50;;;3.00;74.30;;;;;;4964222;28;20165;-90
2023/04/05 03:13:56;;;;;;;1.87;0.60;;;3.00;74.40;;;;;;4963615;28;20042;-89
2023/04/05 03:16:40;;;;;;;2.70;0.82;;;3.00;74.40;;;;;;4965124;28;20042;-89
2023/04/05 03:19:21;;;;;;;3.30;1.30;;;2.90;74.50;;;;;;4964469;28;20053;-89
2023/04/05 03:21:52;;;;;;;1.50;0.47;;;2.90;74.60;;;;;;4963701;28;20141;-90
2023/04/05 03:24:30;;;;;;;1.80;0.60;;;2.90;74.80;;;;;;4964400;28;20050;-90
2023/04/05 03:27:02;;;;;;;1.70;0.57;;;2.90;74.90;;;;;;4979796;28;20498;-90
2023/04/05 03:29:34;;;;;;;2.05;0.75;;;2.80;75.00;;;;;;4963731;28;20074;-90
2023/04/05 03:32:10;;;;;;;2.10;1.07;;;2.80;75.10;;;;;;4943707;28;20047;-89
2023/04/05 03:34:42;;;;;;;1.37;0.60;;;2.70;75.30;;;;;;4973190;28;20491;-90
2023/04/05 03:37:12;;;;;;;2.20;0.70;;;2.70;75.40;;;;;;4932235;28;20049;-90
2023/04/05 03:39:45;;;;;;;1.55;0.70;;;2.70;75.50;;;;;;4978604;28;20133;-89
2023/04/05 03:42:14;;;;;;;2.33;0.77;;;2.60;75.60;;;;;;4978803;28;20065;-89
2023/04/05 03:44:43;;;;;;;2.07;0.90;;;2.60;75.80;;;;;;4962960;28;20061;-89
2023/04/05 03:47:12;;;;;;;2.03;0.90;;;2.50;75.80;;;;;;4962600;28;20042;-89
2023/04/05 03:49:40;;;;;;;2.60;0.97;;;2.50;76.00;;;;;;4958945;28;20039;-90
2023/04/05 03:52:08;;;;;;;2.23;0.90;;;2.50;76.10;;;;;;4975295;28;20046;-89
2023/04/05 03:54:35;;;;;;;1.73;0.80;;;2.40;76.20;;;;;;4961987;28;20046;-89
2023/04/05 03:57:03;;;;;;;2.45;0.88;;;2.40;76.30;;;;;;4946507;28;20054;-89
2023/04/05 03:59:30;;;;;;;2.93;0.87;;;2.40;76.40;;;;;;4962787;28;20060;-89
2023/04/05 04:02:00;;;;;;;2.90;0.80;;;2.40;76.50;;;;;;4962503;28;20058;-89
2023/04/05 04:04:30;;;;;;;1.93;0.70;;;2.40;76.60;;;;;;4958968;28;20415;-91
2023/04/05 04:06:58;;;;;;;1.33;0.50;;;2.30;76.60;;;;;;4971060;28;20486;-90
2023/04/05 04:09:28;;;;;;;2.10;0.63;;;2.30;76.60;;;;;;4962318;28;20440;-90
2023/04/05 04:12:03;;;;;;;3.20;0.97;;;2.30;76.70;;;;;;4978129;28;20101;-91
2023/04/05 04:14:34;;;;;;;1.87;0.70;;;2.30;76.80;;;;;;4961953;28;20105;-91
2023/04/05 04:17:33;;;;;;;2.33;0.57;;;2.30;76.90;;;;;;4978269;28;20042;-90
2023/04/05 04:20:32;;;;;;;2.43;0.80;;;2.20;76.90;;;;;;4953475;28;20051;-91
2023/04/05 04:23:09;;;;;;;1.80;0.67;;;2.20;77.00;;;;;;4968868;28;20114;-91
2023/04/05 04:26:03;;;;;;;2.07;0.67;;;2.20;77.10;;;;;;4965161;28;20051;-91
2023/04/05 04:29:00;;;;;;;2.43;0.80;;;2.10;77.20;;;;;;4965397;28;20073;-90
2023/04/05 04:31:56;;;;;;;2.80;0.70;;;2.10;77.30;;;;;;4979206;28;20499;-91
2023/04/05 04:34:57;;;;;;;2.33;0.70;;;2.00;77.40;;;;;;4972881;28;20085;-91
2023/04/05 04:37:37;;;;;;;1.83;0.60;;;2.00;77.50;;;;;;4963389;28;20042;-91
2023/04/05 04:40:38;;;;;;;2.20;0.60;;;2.00;77.60;;;;;;4973070;28;20038;-91
2023/04/05 04:43:25;;;;;;;2.27;0.60;;;1.90;77.70;;;;;;4977144;28;20077;-91
2023/04/05 04:46:29;;;;;;;2.33;0.60;;;1.90;77.90;;;;;;4920597;28;20055;-91
2023/04/05 04:49:04;;;;;;;2.50;0.93;;;1.80;78.00;;;;;;4957893;28;20051;-90
2023/04/05 04:51:36;;;;;;;2.30;0.70;;;1.80;78.10;;;;;;4990507;28;20406;-91
2023/04/05 04:54:04;;;;;;;2.53;0.90;;;1.80;78.20;;;;;;4961362;28;20047;-90
2023/04/05 04:56:31;;;;;;;2.53;0.80;;;1.80;78.40;;;;;;4961865;28;20054;-90
2023/04/05 04:59:00;;;;;;;1.90;0.80;;;1.70;78.70;;;;;;4961732;28;20050;-91
2023/04/05 05:01:30;;;;;;;2.27;0.70;;;1.70;78.50;;;;;;4944763;28;20495;-84
2023/04/05 05:03:58;;;;;;;2.33;0.80;;;1.80;78.60;;;;;;4975750;28;20081;-84
2023/04/05 05:06:33;;;;;;;2.43;0.60;;;1.70;78.70;;;;;;4970787;28;20406;-84
2023/04/05 05:09:03;;;;;;;1.80;0.77;;;1.70;78.70;;;;;;4960978;28;20434;-85
2023/04/05 05:11:37;;;;;;;3.13;1.13;;;1.80;78.80;;;;;;4976318;28;20046;-85
2023/04/05 05:14:07;;;;;;;2.80;1.07;;;1.70;78.80;;;;;;4961357;28;20077;-84
2023/04/05 05:16:35;;;;;;;3.40;1.10;;;1.70;78.90;;;;;;4960685;28;20062;-84
2023/04/05 05:19:04;;;;;;;1.60;0.73;;;1.80;79.00;;;;;;4957111;28;20058;-84
2023/04/05 05:21:40;;;;;;;2.20;0.70;;;1.70;79.00;;;;;;4975507;28;20065;-84
2023/04/05 05:24:08;;;;;;;2.40;0.87;;;1.70;79.00;;;;;;4978150;28;20567;-84
2023/04/05 05:26:36;;;;;;;2.30;0.60;;;1.70;79.10;;;;;;4979690;28;20050;-84
2023/04/05 05:29:04;;;;;;;3.63;0.70;;;1.80;79.20;;;;;;4976162;28;20050;-84
2023/04/05 05:31:35;;;;;;;2.20;1.17;;;1.70;79.20;;;;;;4978229;28;20125;-84
2023/04/05 05:34:02;;;;;;;1.87;0.60;;;1.80;79.30;;;;;;4960132;28;20053;-84
2023/04/05 05:36:30;;;;;;;4.13;1.03;;;1.80;79.30;;;;;;4961532;28;20118;-84
2023/04/05 05:38:57;;;;;;;2.10;0.83;;;1.80;79.30;;;;;;4943084;28;20118;-84
2023/04/05 05:41:24;;;;;;;2.33;0.83;;;1.80;79.30;;;;;;4993443;28;20061;-84
2023/04/05 05:43:54;;;;;;;2.53;0.77;;;1.80;79.30;;;;;;4974543;28;20134;-84
2023/04/05 05:46:21;;;;;;;3.07;1.10;;;1.90;79.40;;;;;;4959208;28;20133;-84
2023/04/05 05:48:49;;;;;;;2.27;1.00;;;1.90;79.40;;;;;;4960668;28;20038;-84
2023/04/05 05:51:17;;;;;;;2.30;0.97;;;1.90;79.30;;;;;;4943932;28;20051;-84
2023/04/05 05:53:46;;;;;;;3.63;0.80;;;2.00;79.40;;;;;;4961338;28;20052;-84
2023/04/05 05:56:14;;;;;;;1.47;0.60;;;2.10;79.30;;;;;;4978476;28;20089;-84
2023/04/05 05:58:41;;;;;;;2.00;0.90;;;2.10;79.20;;;;;;4979574;28;20058;-84
2023/04/05 06:01:12;;;;;;;1.73;0.53;;;2.20;79.10;;;;;;4963882;28;20092;-84
2023/04/05 06:03:39;;;;;;;3.03;1.53;;;2.40;79.00;;;;;;4979805;28;20050;-84
2023/04/05 06:06:10;;;;;;;1.77;0.77;;;2.40;78.80;;;;;;4963999;28;20101;-85
2023/04/05 06:08:38;;;;;;;1.97;0.90;;;2.60;78.60;;;;;;4979405;28;20042;-84
2023/04/05 06:11:05;;;;;;;1.87;0.97;;;2.70;78.40;;;;;;4963553;28;20054;-84
2023/04/05 06:13:32;;;;;;;3.07;0.90;;;2.80;78.20;;;;;;4979344;28;20042;-84
2023/04/05 06:16:00;;;;;;;1.77;0.70;;;2.90;78.00;;;;;;4979670;28;20130;-84
2023/04/05 06:18:28;;;;;;;2.67;1.07;;;3.00;77.80;;;;;;4979956;28;20057;-84
2023/04/05 06:20:56;;;;;;;2.37;0.80;;;3.10;77.60;;;;;;4963792;28;20129;-84
2023/04/05 06:23:23;;;;;;;4.93;1.10;;;3.20;77.40;;;;;;4963453;28;20054;-84
2023/04/05 06:25:50;;;;;;;2.47;0.70;;;3.30;77.40;;;;;;4979272;28;20054;-84
2023/04/05 06:28:18;;;;;;;2.87;1.00;;;3.40;77.20;;;;;;4969512;28;20052;-85
2023/04/05 06:30:45;;;;;;;1.90;0.70;;;3.50;77.10;;;;;;4963348;28;20042;-81
2023/04/05 06:33:12;;;;;;;2.00;1.10;;;3.60;77.00;;;;;;4963308;28;20042;-82
2023/04/05 06:35:42;;;;;;;2.47;0.80;;;3.70;76.90;;;;;;4978823;28;20055;-81
2023/04/05 06:38:10;;;;;;;3.27;1.20;;;3.80;76.70;;;;;;4947245;28;20094;-84
2023/04/05 06:40:37;;;;;;;4.23;1.53;;;3.80;76.60;;;;;;4963305;28;20537;-84
2023/04/05 06:43:05;;;;;;;3.07;1.10;;;3.90;76.50;;;;;;4963638;28;20046;-85
2023/04/05 06:45:32;;;;;;;4.03;1.37;;;4.00;76.40;;;;;;4979159;28;20053;-84
2023/04/05 06:48:00;;;;;;;3.67;1.30;;;4.10;76.30;;;;;;4980236;28;20499;-85
2023/04/05 06:50:35;;;;;;;3.30;1.33;;;4.20;76.20;;;;;;4963110;28;20042;-90
2023/04/05 06:53:04;;;;;;;2.20;1.10;;;4.30;76.20;;;;;;4954513;28;20046;-85
2023/04/05 06:55:32;;;;;;;4.50;1.20;;;4.30;76.00;;;;;;4978899;28;20046;-85
2023/04/05 06:57:59;;;;;;;3.63;1.17;;;4.40;75.90;;;;;;4963153;28;20034;-87
2023/04/05 07:00:26;;;;;;;3.00;1.42;;;4.50;75.80;;;;;;4979086;28;20515;-87
2023/04/05 07:02:55;;;;;;;2.33;1.13;;;4.60;75.70;;;;;;4960101;28;20506;-85
2023/04/05 07:05:22;;;;;;;2.30;0.85;;;4.70;75.60;;;;;;4973059;28;20056;-84
2023/04/05 07:07:49;;;;;;;1.73;0.90;;;4.80;75.40;;;;;;5030697;23;20043;-82
2023/04/05 07:10:19;;;;;;;2.92;1.40;;;4.90;75.20;;;;;;4931980;29;20514;-82
2023/04/05 07:12:46;;;;;;;4.43;1.10;;;5.00;75.10;;;;;;4938320;28;20138;-83
2023/04/05 07:15:19;;;;;;;2.43;0.90;;;5.00;75.00;;;;;;4909363;29;20023;-83
2023/04/05 07:17:46;;;;;;;2.72;1.10;;;5.10;74.90;;;;;;4931494;29;20131;-83
2023/04/05 07:20:15;;;;;;;3.17;1.35;;;5.20;74.80;;;;;;4924633;29;20496;-85
2023/04/05 07:22:42;;;;;;;2.75;0.95;;;5.30;74.70;;;;;;4937074;29;20047;-85
2023/04/05 07:25:11;;;;;;;2.90;1.35;;;5.40;74.60;;;;;;4938945;29;20055;-86
2023/04/05 07:27:43;;;;;;;2.97;1.13;;;5.50;74.50;;;;;;4940128;29;20075;-86
2023/04/05 07:30:11;;;;;;;2.17;1.02;;;5.60;74.30;;;;;;4935317;29;20048;-85
2023/04/05 07:32:41;;;;;;;2.13;0.93;;;5.70;74.10;;;;;;4924503;29;20075;-84
2023/04/05 07:35:09;;;;;;;3.17;1.05;;;5.80;74.00;;;;;;4928023;29;20051;-84
2023/04/05 07:37:37;;;;;;;2.05;0.80;;;5.90;73.80;;;;;;4931034;29;20528;-86
2023/04/05 07:40:06;;;;;;;2.53;1.20;;;5.90;73.60;;;;;;4906384;28;20080;-82
2023/04/05 07:42:36;;;;;;;2.90;1.30;;;6.00;73.50;;;;;;4916216;29;20059;-87
2023/04/05 07:45:04;;;;;;;2.17;1.08;;;6.10;73.40;;;;;;4921073;29;20079;-86
2023/04/05 07:47:33;;;;;;;2.63;1.02;;;6.20;73.20;;;;;;4917656;29;20060;-86
2023/04/05 07:50:01;;;;;;;1.88;0.85;;;6.30;73.10;;;;;;4933078;29;20478;-85
2023/04/05 07:52:28;;;;;;;1.98;0.88;;;6.30;73.00;;;;;;4924616;29;20146;-82
2023/04/05 07:54:55;;;;;;;1.90;0.77;;;6.50;72.90;;;;;;4931403;28;20510;-82
2023/04/05 07:57:22;;;;;;;2.42;0.95;;;6.60;72.70;;;;;;4920153;29;20052;-82
2023/04/05 07:59:51;;;;;;;2.15;0.88;;;6.60;72.60;;;;;;4917011;29;20044;-81
2023/04/05 08:02:18;;;;;;;1.85;0.60;;;6.70;72.50;;;;;;4930689;29;20067;-81
2023/04/05 08:04:47;;;;;;;2.63;0.45;;;6.80;72.30;;;;;;4915251;29;20055;-81
2023/04/05 08:07:18;;;;;;;1.60;0.80;;;6.90;72.30;;;;;;4919456;29;20111;-81
2023/04/05 08:09:45;;;;;;;1.95;0.70;;;7.00;72.10;;;;;;4927244;29;20067;-83
2023/04/05 08:12:12;;;;;;;2.42;0.90;;;7.10;72.00;;;;;;4908763;29;20048;-81
2023/04/05 08:14:39;;;;;;;2.28;0.75;;;7.20;71.90;;;;;;4934341;29;20130;-81
2023/04/05 08:17:06;;;;;;;2.95;1.20;;;7.30;71.70;;;;;;4912073;28;20050;-81
2023/04/05 08:19:33;;;;;;;2.40;1.00;;;7.30;71.50;;;;;;4926824;29;20040;-81
2023/04/05 08:22:00;;;;;;;2.65;0.60;;;7.30;71.40;;;;;;4925543;29;20047;-81
2023/04/05 08:24:28;;;;;;;1.73;0.68;;;7.40;71.40;;;;;;4900230;29;20135;-81
2023/04/05 08:26:55;;;;;;;1.77;0.95;;;7.50;71.30;;;;;;4908254;29;20448;-82
2023/04/05 08:29:22;;;;;;;1.45;0.68;;;7.50;71.20;;;;;;4921809;29;20146;-81
2023/04/05 08:31:50;;;;;;;2.60;0.80;;;7.60;71.10;;;;;;4906228;29;20112;-82
2023/04/05 08:34:17;;;;;;;1.88;0.90;;;7.60;71.00;;;;;;4900536;29;20052;-84
2023/04/05 08:36:46;;;;;;;1.95;0.70;;;7.60;70.90;;;;;;4914025;29;20070;-84
2023/04/05 08:39:14;;;;;;;1.88;0.88;;;7.70;70.90;;;;;;4919345;29;20044;-85
2023/04/05 08:41:56;;;;;;;1.45;0.57;;;7.70;70.70;;;;;;4921928;29;20131;-85
2023/04/05 08:44:27;;;;;;;1.95;1.00;;;7.80;70.50;;;;;;4922333;29;20044;-82
2023/04/05 08:47:00;;;;;;;2.55;0.82;;;7.80;70.50;;;;;;4930582;29;20043;-83
2023/04/05 08:49:27;;;;;;;1.95;0.80;;;7.90;70.40;;;;;;4926803;29;20144;-82
2023/04/05 08:51:55;;;;;;;3.53;0.93;;;7.90;70.30;;;;;;4928774;28;20047;-83
2023/04/05 08:54:25;;;;;;;1.77;0.90;;;7.90;70.10;;;;;;4937515;29;20047;-83
2023/04/05 08:56:58;;;;;;;1.67;0.65;;;8.00;70.00;;;;;;4931513;28;20106;-82
2023/04/05 08:59:31;;;;;;;1.33;0.52;;;8.10;69.90;;;;;;4914392;28;20141;-83
2023/04/05 09:02:17;;;;;;;1.98;0.60;;;8.10;69.80;;;;;;4924182;29;20063;-82
2023/04/05 09:04:56;;;;;;;2.30;0.73;;;8.10;69.50;;;;;;4925609;29;20047;-83
2023/04/05 09:07:28;;;;;;;1.42;0.63;;;8.10;69.50;;;;;;4929376;29;20066;-83
2023/04/05 09:09:59;;;;;;;1.92;0.63;;;8.20;69.30;;;;;;4908276;29;20063;-83
2023/04/05 09:12:31;;;;;;;1.77;0.50;;;8.30;69.10;;;;;;4914608;29;20498;-84
2023/04/05 09:15:01;;;;;;;1.88;0.70;;;8.30;69.00;;;;;;4932508;29;20058;-83
2023/04/05 09:17:31;;;;;;;2.05;0.60;;;8.30;69.00;;;;;;4929732;28;20046;-84
2023/04/05 09:20:03;;;;;;;;;;;8.40;68.80;;;;;;4925345;28;20066;-84
2023/04/05 09:22:40;;;;;;;2.47;0.70;;;8.40;69.00;;;;;;4912413;29;19922;-83
2023/04/05 09:25:31;;;;;;;1.40;0.63;;;8.50;68.90;;;;;;4926367;28;20542;-83
2023/04/05 09:28:04;;;;;;;1.50;0.50;;;8.50;68.60;;;;;;4909592;29;20055;-83
2023/04/05 09:30:32;;;;;;;1.98;0.52;;;8.60;68.50;;;;;;4935152;28;20508;-84
2023/04/05 09:33:06;;;;;;;3.15;0.70;;;8.70;68.40;;;;;;4942051;29;20122;-84
2023/04/05 09:35:36;;;;;;;2.30;0.80;;;8.70;68.10;;;;;;4917187;29;20064;-84
2023/04/05 09:38:09;;;;;;;1.95;0.80;;;8.70;67.90;;;;;;4928461;28;20039;-83
2023/04/05 09:40:44;;;;;;;3.42;0.70;;;8.80;67.80;;;;;;4913020;28;20102;-83
2023/04/05 09:43:40;;;;;;;1.98;0.70;;;8.80;67.50;;;;;;4924594;29;20051;-83
2023/04/05 09:46:31;;;;;;;2.53;0.80;;;8.90;67.00;;;;;;4932016;28;20047;-84
2023/04/05 09:49:00;;;;;;;1.80;0.85;;;8.80;66.90;;;;;;4950306;29;20063;-84
2023/04/05 09:51:35;;;;;;;1.55;0.57;;;8.80;67.10;;;;;;4932579;29;20171;-83
2023/04/05 09:54:10;;;;;;;2.75;0.88;;;8.80;66.90;;;;;;4941452;29;20047;-84
2023/04/05 09:56:39;;;;;;;1.10;0.50;;;8.90;66.80;;;;;;4925741;29;20107;-84
2023/04/05 09:59:11;;;;;;;1.40;0.40;;;9.00;66.70;;;;;;4923323;29;20184;-83
2023/04/05 10:01:43;;;;;;;2.95;0.60;;;9.00;66.50;;;;;;4922784;29;20078;-84
2023/04/05 10:04:12;;;;;;;1.50;0.60;;;9.10;66.40;;;;;;4926005;28;20048;-83
2023/04/05 10:06:41;;;;;;;2.92;0.90;;;9.20;66.40;;;;;;4929168;28;20107;-83
2023/04/05 10:09:10;;;;;;;2.25;0.90;;;9.20;65.90;;;;;;4938000;28;20137;-83
2023/04/05 10:11:43;;;;;;;2.05;1.00;;;9.20;65.70;;;;;;4929546;29;20102;-84
2023/04/05 10:14:10;;;;;;;1.98;0.80;;;9.40;65.30;;;;;;4930429;29;20071;-83
2023/04/05 10:16:49;;;;;;;1.80;0.73;;;9.60;64.70;;;;;;4910484;28;20044;-89
2023/04/05 10:19:28;;;;;;;1.40;0.60;;;9.80;64.00;;;;;;4929163;29;20044;-83
2023/04/05 10:22:01;;;;;;;1.35;0.52;;;9.90;63.80;;;;;;4930207;29;20039;-84
2023/04/05 10:24:31;;;;;;;1.55;0.60;;;10.30;63.50;;;;;;4933248;29;20419;-83
2023/04/05 10:27:16;;;;;;;1.40;0.75;;;10.60;62.50;;;;;;4909965;28;20106;-82
2023/04/05 10:29:53;;;;;;;4.90;1.15;;;10.90;61.70;;;;;;4928392;29;20059;-82
2023/04/05 10:32:37;;;;;;;1.45;0.65;;;11.10;60.70;;;;;;4921299;29;20608;-80
2023/04/05 10:35:13;;;;;;;1.90;0.77;;;11.30;60.30;;;;;;4932508;28;20112;-81
2023/04/05 10:38:11;;;;;;;1.90;0.90;;;11.20;60.30;;;;;;4929986;29;20397;-88
2023/04/05 10:40:42;;;;;;;4.05;1.30;;;11.30;60.00;;;;;;4921566;29;20071;-84
2023/04/05 10:43:16;;;;;;;2.65;0.90;;;11.20;60.00;;;;;;4928022;29;20429;-84
2023/04/05 10:45:46;;;;;;;2.50;1.08;;;11.10;60.10;;;;;;4937601;29;20579;-87
2023/04/05 10:49:00;;;;;;;3.00;1.13;;;10.80;60.00;;;;;;4949551;29;20500;-85
2023/04/05 10:51:28;;;;;;;2.67;1.05;;;10.60;60.30;;;;;;4923694;29;20063;-86
2023/04/05 10:53:56;;;;;;;3.88;1.10;;;10.70;60.70;;;;;;4929358;29;20077;-85
2023/04/05 10:56:26;;;;;;;1.88;0.90;;;11.10;60.00;;;;;;4928781;29;20079;-85
2023/04/05 10:58:55;;;;;;;1.77;0.63;;;11.20;59.70;;;;;;4923985;29;20043;-84
2023/04/05 11:01:22;;;;;;;2.08;0.75;;;11.50;59.40;;;;;;4925304;29;20491;-90
2023/04/05 11:03:51;;;;;;;3.83;0.85;;;12.10;58.60;;;;;;4922709;29;20596;-86
2023/04/05 11:06:27;;;;;;;2.45;0.80;;;12.30;57.60;;;;;;4931162;29;20044;-84
2023/04/05 11:09:19;;;;;;;2.55;0.95;;;12.50;57.00;;;;;;4906907;29;20398;-83
2023/04/05 11:11:53;;;;;;;1.83;0.90;;;12.00;57.30;;;;;;4931197;29;20054;-85
2023/04/05 11:15:18;;;;;;;2.28;0.95;;;11.40;58.50;;;;;;4921606;29;20408;-92
2023/04/05 11:18:05;;;;;;;2.63;1.08;;;11.00;59.20;;;;;;4921943;29;20055;-86
2023/04/05 11:20:54;;;;;;;1.42;0.63;;;10.70;60.10;;;;;;4921785;29;20058;-85
2023/04/05 11:23:28;;;;;;;1.60;0.60;;;10.50;60.60;;;;;;4888008;29;20044;-87
2023/04/05 11:26:05;;;;;;;2.10;0.70;;;10.50;61.00;;;;;;4923151;29;20047;-88
2023/04/05 11:28:40;;;;;;;2.17;0.55;;;10.60;60.70;;;;;;4927221;29;20047;-85
2023/04/05 11:31:21;;;;;;;1.58;0.60;;;11.00;60.10;;;;;;4940817;28;20044;-85
2023/04/05 11:33:58;;;;;;;1.60;0.70;;;11.50;59.30;;;;;;4935286;29;20039;-89
2023/04/05 11:36:35;;;;;;;1.15;0.50;;;11.60;58.40;;;;;;4900363;29;20047;-85
2023/04/05 11:39:17;;;;;;;2.25;0.50;;;11.50;58.20;;;;;;4899749;28;20050;-88
2023/04/05 11:41:54;;;;;;;1.50;0.55;;;11.30;58.50;;;;;;4921630;28;20090;-87
2023/04/05 11:44:25;;;;;;;2.15;0.73;;;11.00;59.00;;;;;;4936469;28;20051;-85
2023/04/05 11:46:55;;;;;;;2.55;1.13;;;10.80;59.10;;;;;;4911621;29;20059;-83
2023/04/05 11:49:24;;;;;;;3.33;1.40;;;10.70;58.60;;;;;;4911949;28;20051;-82
2023/04/05 11:51:55;;;;;;;3.88;1.30;;;10.70;58.50;;;;;;4925522;28;20152;-85
2023/04/05 11:54:32;;;;;;;2.75;0.98;;;10.60;58.60;;;;;;4931414;29;20131;-81
2023/04/05 11:57:02;;;;;;;3.10;1.10;;;10.50;58.60;;;;;;4927729;29;20066;-81
2023/04/05 11:59:31;;;;;;;2.03;1.00;;;10.50;59.00;;;;;;4911150;29;20408;-85
2023/04/05 12:02:05;;;;;;;2.17;0.80;;;10.40;59.20;;;;;;4926202;29;20456;-82
2023/04/05 12:04:32;;;;;;;1.30;0.60;;;10.40;59.20;;;;;;4930473;29;20098;-86
2023/04/05 12:07:13;;;;;;;2.22;0.82;;;10.30;59.10;;;;;;4918019;28;20119;-86
2023/04/05 12:10:02;;;;;;;2.15;0.90;;;10.40;59.00;;;;;;4932543;29;20055;-84
2023/04/05 12:12:43;;;;;;;1.63;0.68;;;10.40;58.70;;;;;;4917927;29;20044;-85
2023/04/05 12:15:17;;;;;;;1.35;0.70;;;10.30;58.70;;;;;;4921234;29;20043;-87
2023/04/05 12:17:50;;;;;;;1.17;0.60;;;10.30;58.80;;;;;;4921751;29;20039;-86
2023/04/05 12:20:22;;;;;;;3.35;1.20;;;10.30;58.70;;;;;;4901901;29;20048;-87
2023/04/05 12:26:17;;;;;;;2.03;0.80;;;10.30;58.60;;;;;;4931530;29;20060;-85
2023/04/05 12:28:56;;;;;;;2.13;0.70;;;10.20;58.60;;;;;;4925844;29;20412;-88
2023/04/05 12:31:36;;;;;;;1.70;0.65;;;10.30;58.50;;;;;;4919811;29;20090;-85
2023/04/05 12:34:04;;;;;;;1.70;0.70;;;10.30;58.50;;;;;;4916181;28;20070;-86
2023/04/05 12:36:31;;;;;;;1.75;0.80;;;10.30;58.70;;;;;;4945143;28;20130;-86
2023/04/05 12:39:00;;;;;;;3.03;0.75;;;10.30;58.60;;;;;;4901410;29;20044;-86
2023/04/05 12:41:30;;;;;;;2.53;0.70;;;10.40;58.50;;;;;;4926123;29;20681;-86
2023/04/05 12:44:03;;;;;;;2.90;0.70;;;10.40;58.40;;;;;;4920243;29;20454;-86
2023/04/05 12:46:40;;;;;;;2.10;0.70;;;10.50;58.30;;;;;;4913580;29;20463;-82
2023/04/05 12:49:17;;;;;;;1.42;0.52;;;10.50;58.00;;;;;;4916428;29;20151;-87
2023/04/05 12:51:45;;;;;;;1.55;0.47;;;10.50;58.00;;;;;;4916180;29;20492;-87
2023/04/05 12:54:13;;;;;;;1.25;0.50;;;10.50;58.00;;;;;;4919123;29;20048;-81
2023/04/05 12:56:42;;;;;;;1.30;0.40;;;10.50;58.00;;;;;;4914498;29;20063;-84
2023/04/05 12:59:09;;;;;;;1.55;0.45;;;10.50;58.00;;;;;;4918752;29;20044;-84
2023/04/05 13:01:37;;;;;;;1.40;0.52;;;10.60;58.00;;;;;;4919572;29;20048;-85
2023/04/05 13:04:04;;;;;;;2.92;0.85;;;10.60;58.00;;;;;;4920288;29;20059;-85
2023/04/05 13:06:41;;;;;;;1.80;0.68;;;10.60;57.90;;;;;;4928023;29;20056;-85
2023/04/05 13:09:08;;;;;;;1.77;0.60;;;10.60;57.90;;;;;;4926416;29;20501;-84
2023/04/05 13:11:35;;;;;;;2.80;0.90;;;10.70;57.80;;;;;;4926544;28;20144;-83
2023/04/05 13:14:02;;;;;;;2.13;1.00;;;10.70;57.80;;;;;;4908308;29;20124;-84
2023/04/05 13:16:29;;;;;;;2.17;0.93;;;10.70;57.70;;;;;;4900947;29;20048;-83
2023/04/05 13:18:57;;;;;;;1.88;0.60;;;10.80;57.80;;;;;;4939663;29;20416;-84
2023/04/05 13:21:24;;;;;;;1.30;0.60;;;10.70;57.80;;;;;;4921223;28;20095;-85
2023/04/05 13:23:52;;;;;;;1.80;0.90;;;10.70;57.70;;;;;;4905279;29;20054;-84
2023/04/05 13:26:19;;;;;;;2.10;0.55;;;10.60;57.60;;;;;;4901173;28;20047;-85